sensor_id;sensor_type;location;lat;lon;timestamp;P1;durP1;ratioP1;P2;durP2;ratioP2
71753;SDS011;59593;51.716;7.016;2023-05-10T00:00:23;10.15;;;9.15;;
71753;SDS011;59593;51.716;7.016;2023-05-10T00:02:49;10.27;;;9.25;;
71753;SDS011;59593;51.716;7.016;2023-05-10T00:05:14;10.57;;;9.48;;
71753;SDS011;59593;51.716;7.016;2023-05-10T00:07:40;10.88;;;9.77;;
71753;SDS011;59593;51.716;7.016;2023-05-10T00:10:09;10.48;;;9.38;;
71753;SDS011;59593;51.716;7.016;2023-05-10T00:12:35;11.95;;;10.05;;
71753;SDS011;59593;51.716;7.016;2023-05-10T00:15:01;12.13;;;10.50;;
71753;SDS011;59593;51.716;7.016;2023-05-10T00:17:27;11.45;;;10.25;;
71753;SDS011;59593;51.716;7.016;2023-05-10T00:19:53;11.43;;;9.68;;
71753;SDS011;59593;51.716;7.016;2023-05-10T00:22:19;11.75;;;10.32;;
71753;SDS011;59593;51.716;7.016;2023-05-10T00:24:45;12.52;;;10.55;;
71753;SDS011;59593;51.716;7.016;2023-05-10T00:27:10;12.32;;;10.63;;
71753;SDS011;59593;51.716;7.016;2023-05-10T00:29:36;11.88;;;9.98;;
71753;SDS011;59593;51.716;7.016;2023-05-10T00:32:01;12.48;;;10.68;;
71753;SDS011;59593;51.716;7.016;2023-05-10T00:34:27;13.93;;;10.68;;
71753;SDS011;59593;51.716;7.016;2023-05-10T00:36:53;11.50;;;9.85;;
71753;SDS011;59593;51.716;7.016;2023-05-10T00:39:18;14.25;;;11.18;;
71753;SDS011;59593;51.716;7.016;2023-05-10T00:41:44;12.35;;;10.10;;
71753;SDS011;59593;51.716;7.016;2023-05-10T00:44:10;11.63;;;9.38;;
71753;SDS011;59593;51.716;7.016;2023-05-10T00:46:35;10.50;;;8.95;;
71753;SDS011;59593;51.716;7.016;2023-05-10T00:49:01;11.43;;;9.45;;
71753;SDS011;59593;51.716;7.016;2023-05-10T00:51:27;8.80;;;7.75;;
71753;SDS011;59593;51.716;7.016;2023-05-10T00:53:53;6.13;;;5.53;;
71753;SDS011;59593;51.716;7.016;2023-05-10T00:56:18;6.95;;;5.53;;
71753;SDS011;59593;51.716;7.016;2023-05-10T00:58:47;6.07;;;4.53;;
71753;SDS011;59593;51.716;7.016;2023-05-10T01:01:13;7.30;;;5.47;;
71753;SDS011;59593;51.716;7.016;2023-05-10T01:03:40;7.22;;;4.85;;
71753;SDS011;59593;51.716;7.016;2023-05-10T01:06:06;4.90;;;4.40;;
71753;SDS011;59593;51.716;7.016;2023-05-10T01:08:32;4.60;;;3.63;;
71753;SDS011;59593;51.716;7.016;2023-05-10T01:10:58;7.05;;;4.07;;
71753;SDS011;59593;51.716;7.016;2023-05-10T01:16:04;5.10;;;3.17;;
71753;SDS011;59593;51.716;7.016;2023-05-10T01:18:31;3.20;;;2.72;;
71753;SDS011;59593;51.716;7.016;2023-05-10T01:21:07;4.15;;;3.00;;
71753;SDS011;59593;51.716;7.016;2023-05-10T01:29:55;3.10;;;2.80;;
71753;SDS011;59593;51.716;7.016;2023-05-10T01:32:48;3.05;;;2.75;;
71753;SDS011;59593;51.716;7.016;2023-05-10T01:40:57;3.17;;;2.78;;
71753;SDS011;59593;51.716;7.016;2023-05-10T01:43:57;3.47;;;2.83;;
71753;SDS011;59593;51.716;7.016;2023-05-10T01:46:35;4.65;;;3.05;;
71753;SDS011;59593;51.716;7.016;2023-05-10T01:49:02;3.45;;;3.03;;
71753;SDS011;59593;51.716;7.016;2023-05-10T01:51:39;4.10;;;2.80;;
71753;SDS011;59593;51.716;7.016;2023-05-10T01:54:11;3.33;;;2.70;;
71753;SDS011;59593;51.716;7.016;2023-05-10T01:56:39;3.85;;;2.67;;
71753;SDS011;59593;51.716;7.016;2023-05-10T01:59:09;4.80;;;2.90;;
71753;SDS011;59593;51.716;7.016;2023-05-10T02:01:39;3.53;;;2.60;;
71753;SDS011;59593;51.716;7.016;2023-05-10T02:04:06;2.60;;;2.22;;
71753;SDS011;59593;51.716;7.016;2023-05-10T02:06:33;3.35;;;2.90;;
71753;SDS011;59593;51.716;7.016;2023-05-10T02:09:00;3.90;;;2.60;;
71753;SDS011;59593;51.716;7.016;2023-05-10T02:11:28;2.63;;;2.30;;
71753;SDS011;59593;51.716;7.016;2023-05-10T02:13:54;3.80;;;2.30;;
71753;SDS011;59593;51.716;7.016;2023-05-10T02:16:22;2.97;;;2.20;;
71753;SDS011;59593;51.716;7.016;2023-05-10T02:18:51;3.42;;;2.40;;
71753;SDS011;59593;51.716;7.016;2023-05-10T02:21:19;3.22;;;2.10;;
71753;SDS011;59593;51.716;7.016;2023-05-10T02:23:46;4.65;;;2.50;;
71753;SDS011;59593;51.716;7.016;2023-05-10T02:26:15;3.67;;;2.58;;
71753;SDS011;59593;51.716;7.016;2023-05-10T02:28:41;5.80;;;3.17;;
71753;SDS011;59593;51.716;7.016;2023-05-10T02:31:08;3.55;;;3.10;;
71753;SDS011;59593;51.716;7.016;2023-05-10T02:33:36;5.35;;;3.17;;
71753;SDS011;59593;51.716;7.016;2023-05-10T02:36:04;3.85;;;3.20;;
71753;SDS011;59593;51.716;7.016;2023-05-10T02:38:32;4.90;;;3.55;;
71753;SDS011;59593;51.716;7.016;2023-05-10T02:41:00;5.45;;;4.55;;
71753;SDS011;59593;51.716;7.016;2023-05-10T02:43:27;5.88;;;4.47;;
71753;SDS011;59593;51.716;7.016;2023-05-10T02:45:55;6.22;;;5.20;;
71753;SDS011;59593;51.716;7.016;2023-05-10T02:48:21;6.75;;;5.15;;
71753;SDS011;59593;51.716;7.016;2023-05-10T02:50:47;6.43;;;5.50;;
71753;SDS011;59593;51.716;7.016;2023-05-10T02:53:18;8.27;;;5.80;;
71753;SDS011;59593;51.716;7.016;2023-05-10T02:55:48;9.98;;;6.75;;
71753;SDS011;59593;51.716;7.016;2023-05-10T02:58:16;11.75;;;7.63;;
71753;SDS011;59593;51.716;7.016;2023-05-10T03:00:44;10.95;;;8.85;;
71753;SDS011;59593;51.716;7.016;2023-05-10T03:03:10;12.05;;;9.38;;
71753;SDS011;59593;51.716;7.016;2023-05-10T03:05:36;14.68;;;11.48;;
71753;SDS011;59593;51.716;7.016;2023-05-10T03:08:01;14.23;;;11.60;;
71753;SDS011;59593;51.716;7.016;2023-05-10T03:10:29;17.65;;;12.27;;
71753;SDS011;59593;51.716;7.016;2023-05-10T03:13:16;16.52;;;12.93;;
71753;SDS011;59593;51.716;7.016;2023-05-10T03:15:54;19.73;;;14.50;;
71753;SDS011;59593;51.716;7.016;2023-05-10T03:18:44;17.08;;;13.85;;
71753;SDS011;59593;51.716;7.016;2023-05-10T03:21:19;22.05;;;15.10;;
71753;SDS011;59593;51.716;7.016;2023-05-10T03:23:59;22.60;;;16.50;;
71753;SDS011;59593;51.716;7.016;2023-05-10T03:26:32;23.33;;;16.92;;
71753;SDS011;59593;51.716;7.016;2023-05-10T03:28:58;23.88;;;16.63;;
71753;SDS011;59593;51.716;7.016;2023-05-10T03:31:25;23.05;;;17.50;;
71753;SDS011;59593;51.716;7.016;2023-05-10T03:33:51;24.38;;;17.80;;
71753;SDS011;59593;51.716;7.016;2023-05-10T03:36:18;22.58;;;17.02;;
71753;SDS011;59593;51.716;7.016;2023-05-10T03:38:44;26.70;;;18.77;;
71753;SDS011;59593;51.716;7.016;2023-05-10T03:41:10;27.20;;;18.88;;
71753;SDS011;59593;51.716;7.016;2023-05-10T03:43:39;27.90;;;19.10;;
71753;SDS011;59593;51.716;7.016;2023-05-10T03:46:04;28.08;;;20.20;;
71753;SDS011;59593;51.716;7.016;2023-05-10T03:48:33;29.73;;;21.65;;
71753;SDS011;59593;51.716;7.016;2023-05-10T03:50:58;30.90;;;21.83;;
71753;SDS011;59593;51.716;7.016;2023-05-10T03:53:24;29.02;;;20.40;;
71753;SDS011;59593;51.716;7.016;2023-05-10T03:55:50;28.80;;;21.20;;
71753;SDS011;59593;51.716;7.016;2023-05-10T03:58:15;29.20;;;21.00;;
71753;SDS011;59593;51.716;7.016;2023-05-10T04:00:41;29.88;;;20.67;;
71753;SDS011;59593;51.716;7.016;2023-05-10T04:03:12;30.02;;;21.65;;
71753;SDS011;59593;51.716;7.016;2023-05-10T04:05:37;30.25;;;21.90;;
71753;SDS011;59593;51.716;7.016;2023-05-10T04:08:03;30.38;;;22.38;;
71753;SDS011;59593;51.716;7.016;2023-05-10T04:10:29;30.27;;;22.27;;
71753;SDS011;59593;51.716;7.016;2023-05-10T04:12:56;34.25;;;23.85;;
71753;SDS011;59593;51.716;7.016;2023-05-10T04:15:21;33.35;;;24.13;;
71753;SDS011;59593;51.716;7.016;2023-05-10T04:17:47;33.45;;;23.83;;
71753;SDS011;59593;51.716;7.016;2023-05-10T04:20:13;37.35;;;25.45;;
71753;SDS011;59593;51.716;7.016;2023-05-10T04:22:39;39.67;;;26.67;;
71753;SDS011;59593;51.716;7.016;2023-05-10T04:25:05;39.05;;;25.58;;
71753;SDS011;59593;51.716;7.016;2023-05-10T04:27:31;40.97;;;26.92;;
71753;SDS011;59593;51.716;7.016;2023-05-10T04:29:56;40.58;;;26.77;;
71753;SDS011;59593;51.716;7.016;2023-05-10T04:32:22;39.75;;;27.90;;
71753;SDS011;59593;51.716;7.016;2023-05-10T04:34:48;37.60;;;27.23;;
71753;SDS011;59593;51.716;7.016;2023-05-10T04:37:14;35.92;;;26.23;;
71753;SDS011;59593;51.716;7.016;2023-05-10T04:39:39;41.42;;;28.75;;
71753;SDS011;59593;51.716;7.016;2023-05-10T04:42:05;42.67;;;27.98;;
71753;SDS011;59593;51.716;7.016;2023-05-10T04:44:31;41.75;;;29.35;;
71753;SDS011;59593;51.716;7.016;2023-05-10T04:46:57;47.60;;;30.80;;
71753;SDS011;59593;51.716;7.016;2023-05-10T04:49:23;43.17;;;29.90;;
71753;SDS011;59593;51.716;7.016;2023-05-10T04:51:49;45.83;;;30.52;;
71753;SDS011;59593;51.716;7.016;2023-05-10T04:54:14;51.08;;;31.90;;
71753;SDS011;59593;51.716;7.016;2023-05-10T04:56:40;45.30;;;32.00;;
71753;SDS011;59593;51.716;7.016;2023-05-10T04:59:05;51.25;;;31.67;;
71753;SDS011;59593;51.716;7.016;2023-05-10T05:01:31;53.95;;;33.78;;
71753;SDS011;59593;51.716;7.016;2023-05-10T05:03:57;51.20;;;34.03;;
71753;SDS011;59593;51.716;7.016;2023-05-10T05:06:23;52.25;;;34.17;;
71753;SDS011;59593;51.716;7.016;2023-05-10T05:08:50;52.58;;;33.65;;
71753;SDS011;59593;51.716;7.016;2023-05-10T05:11:16;54.25;;;35.63;;
71753;SDS011;59593;51.716;7.016;2023-05-10T05:13:42;53.83;;;34.45;;
71753;SDS011;59593;51.716;7.016;2023-05-10T05:16:08;55.90;;;34.13;;
71753;SDS011;59593;51.716;7.016;2023-05-10T05:18:34;53.22;;;34.40;;
71753;SDS011;59593;51.716;7.016;2023-05-10T05:20:59;54.15;;;36.13;;
71753;SDS011;59593;51.716;7.016;2023-05-10T05:23:25;52.95;;;33.75;;
71753;SDS011;59593;51.716;7.016;2023-05-10T05:25:52;51.60;;;31.85;;
71753;SDS011;59593;51.716;7.016;2023-05-10T05:28:18;48.55;;;32.05;;
71753;SDS011;59593;51.716;7.016;2023-05-10T05:30:45;44.28;;;30.70;;
71753;SDS011;59593;51.716;7.016;2023-05-10T05:33:11;45.60;;;31.23;;
71753;SDS011;59593;51.716;7.016;2023-05-10T05:35:38;49.22;;;31.75;;
71753;SDS011;59593;51.716;7.016;2023-05-10T05:38:03;50.05;;;31.65;;
71753;SDS011;59593;51.716;7.016;2023-05-10T05:40:29;46.88;;;32.70;;
71753;SDS011;59593;51.716;7.016;2023-05-10T05:42:54;51.50;;;32.55;;
71753;SDS011;59593;51.716;7.016;2023-05-10T05:45:20;47.55;;;32.40;;
71753;SDS011;59593;51.716;7.016;2023-05-10T05:47:46;49.58;;;30.85;;
71753;SDS011;59593;51.716;7.016;2023-05-10T05:50:12;51.70;;;31.52;;
71753;SDS011;59593;51.716;7.016;2023-05-10T05:52:37;48.15;;;30.48;;
71753;SDS011;59593;51.716;7.016;2023-05-10T05:55:03;47.70;;;31.52;;
71753;SDS011;59593;51.716;7.016;2023-05-10T05:57:29;49.20;;;31.02;;
71753;SDS011;59593;51.716;7.016;2023-05-10T05:59:54;50.05;;;33.03;;
71753;SDS011;59593;51.716;7.016;2023-05-10T06:02:20;54.03;;;33.55;;
71753;SDS011;59593;51.716;7.016;2023-05-10T06:04:46;53.72;;;34.00;;
71753;SDS011;59593;51.716;7.016;2023-05-10T06:07:12;50.33;;;32.90;;
71753;SDS011;59593;51.716;7.016;2023-05-10T06:09:37;53.28;;;33.70;;
71753;SDS011;59593;51.716;7.016;2023-05-10T06:12:03;53.40;;;33.67;;
71753;SDS011;59593;51.716;7.016;2023-05-10T06:14:28;56.63;;;34.92;;
71753;SDS011;59593;51.716;7.016;2023-05-10T06:16:54;59.55;;;36.25;;
71753;SDS011;59593;51.716;7.016;2023-05-10T06:19:21;55.63;;;35.50;;
71753;SDS011;59593;51.716;7.016;2023-05-10T06:21:46;58.08;;;35.72;;
71753;SDS011;59593;51.716;7.016;2023-05-10T06:24:12;55.83;;;35.33;;
71753;SDS011;59593;51.716;7.016;2023-05-10T06:26:38;55.22;;;36.20;;
71753;SDS011;59593;51.716;7.016;2023-05-10T06:29:03;59.25;;;37.00;;
71753;SDS011;59593;51.716;7.016;2023-05-10T06:31:29;57.45;;;37.17;;
71753;SDS011;59593;51.716;7.016;2023-05-10T06:33:55;61.65;;;38.00;;
71753;SDS011;59593;51.716;7.016;2023-05-10T06:36:20;58.97;;;36.92;;
71753;SDS011;59593;51.716;7.016;2023-05-10T06:38:46;58.03;;;38.90;;
71753;SDS011;59593;51.716;7.016;2023-05-10T06:41:12;56.30;;;37.33;;
71753;SDS011;59593;51.716;7.016;2023-05-10T06:43:38;60.97;;;39.05;;
71753;SDS011;59593;51.716;7.016;2023-05-10T06:46:06;57.33;;;38.15;;
71753;SDS011;59593;51.716;7.016;2023-05-10T06:48:32;57.67;;;38.08;;
71753;SDS011;59593;51.716;7.016;2023-05-10T06:50:57;57.45;;;37.65;;
71753;SDS011;59593;51.716;7.016;2023-05-10T06:53:23;56.05;;;36.03;;
71753;SDS011;59593;51.716;7.016;2023-05-10T06:55:49;56.60;;;37.35;;
71753;SDS011;59593;51.716;7.016;2023-05-10T06:58:14;59.55;;;37.97;;
71753;SDS011;59593;51.716;7.016;2023-05-10T07:00:40;57.78;;;36.63;;
71753;SDS011;59593;51.716;7.016;2023-05-10T07:03:10;59.30;;;37.75;;
71753;SDS011;59593;51.716;7.016;2023-05-10T07:05:35;57.58;;;37.78;;
71753;SDS011;59593;51.716;7.016;2023-05-10T07:08:01;53.05;;;35.72;;
71753;SDS011;59593;51.716;7.016;2023-05-10T07:10:27;49.72;;;35.58;;
71753;SDS011;59593;51.716;7.016;2023-05-10T07:12:52;53.05;;;36.53;;
71753;SDS011;59593;51.716;7.016;2023-05-10T07:15:18;51.65;;;35.50;;
71753;SDS011;59593;51.716;7.016;2023-05-10T07:17:44;48.47;;;33.88;;
71753;SDS011;59593;51.716;7.016;2023-05-10T07:20:10;52.15;;;34.22;;
71753;SDS011;59593;51.716;7.016;2023-05-10T07:22:36;48.97;;;34.40;;
71753;SDS011;59593;51.716;7.016;2023-05-10T07:25:05;42.88;;;31.55;;
71753;SDS011;59593;51.716;7.016;2023-05-10T07:27:31;47.88;;;33.95;;
71753;SDS011;59593;51.716;7.016;2023-05-10T07:29:57;46.42;;;32.83;;
71753;SDS011;59593;51.716;7.016;2023-05-10T07:32:23;46.70;;;32.80;;
71753;SDS011;59593;51.716;7.016;2023-05-10T07:34:49;43.45;;;31.38;;
71753;SDS011;59593;51.716;7.016;2023-05-10T07:37:14;43.80;;;32.60;;
71753;SDS011;59593;51.716;7.016;2023-05-10T07:39:40;44.85;;;33.33;;
71753;SDS011;59593;51.716;7.016;2023-05-10T07:42:06;45.60;;;32.85;;
71753;SDS011;59593;51.716;7.016;2023-05-10T07:44:31;49.65;;;34.25;;
71753;SDS011;59593;51.716;7.016;2023-05-10T07:46:57;46.25;;;33.30;;
71753;SDS011;59593;51.716;7.016;2023-05-10T07:49:22;48.55;;;34.65;;
71753;SDS011;59593;51.716;7.016;2023-05-10T07:51:50;48.13;;;33.25;;
71753;SDS011;59593;51.716;7.016;2023-05-10T07:54:16;40.75;;;30.30;;
71753;SDS011;59593;51.716;7.016;2023-05-10T07:56:42;41.35;;;30.50;;
71753;SDS011;59593;51.716;7.016;2023-05-10T07:59:14;42.35;;;30.80;;
71753;SDS011;59593;51.716;7.016;2023-05-10T08:01:41;42.15;;;30.13;;
71753;SDS011;59593;51.716;7.016;2023-05-10T08:04:07;40.55;;;29.35;;
71753;SDS011;59593;51.716;7.016;2023-05-10T08:06:34;41.40;;;30.25;;
71753;SDS011;59593;51.716;7.016;2023-05-10T08:08:59;45.10;;;31.55;;
71753;SDS011;59593;51.716;7.016;2023-05-10T08:11:25;45.67;;;31.25;;
71753;SDS011;59593;51.716;7.016;2023-05-10T08:13:52;49.42;;;33.65;;
71753;SDS011;59593;51.716;7.016;2023-05-10T08:16:18;51.80;;;34.03;;
71753;SDS011;59593;51.716;7.016;2023-05-10T08:18:44;42.17;;;31.00;;
71753;SDS011;59593;51.716;7.016;2023-05-10T08:21:11;40.78;;;28.45;;
71753;SDS011;59593;51.716;7.016;2023-05-10T08:23:37;39.03;;;29.83;;
71753;SDS011;59593;51.716;7.016;2023-05-10T08:26:03;37.80;;;28.98;;
71753;SDS011;59593;51.716;7.016;2023-05-10T08:28:28;40.60;;;30.08;;
71753;SDS011;59593;51.716;7.016;2023-05-10T08:30:54;44.08;;;30.70;;
71753;SDS011;59593;51.716;7.016;2023-05-10T08:33:20;42.63;;;31.27;;
71753;SDS011;59593;51.716;7.016;2023-05-10T08:35:46;42.47;;;31.42;;
71753;SDS011;59593;51.716;7.016;2023-05-10T08:38:11;44.83;;;31.95;;
71753;SDS011;59593;51.716;7.016;2023-05-10T08:40:38;41.35;;;30.40;;
71753;SDS011;59593;51.716;7.016;2023-05-10T08:43:09;38.50;;;28.40;;
71753;SDS011;59593;51.716;7.016;2023-05-10T08:45:38;40.63;;;28.83;;
71753;SDS011;59593;51.716;7.016;2023-05-10T08:48:05;41.50;;;30.15;;
71753;SDS011;59593;51.716;7.016;2023-05-10T08:50:39;40.75;;;29.92;;
71753;SDS011;59593;51.716;7.016;2023-05-10T08:53:09;37.92;;;28.77;;
71753;SDS011;59593;51.716;7.016;2023-05-10T08:55:36;39.75;;;29.02;;
71753;SDS011;59593;51.716;7.016;2023-05-10T08:58:03;36.20;;;27.65;;
71753;SDS011;59593;51.716;7.016;2023-05-10T09:00:30;36.95;;;26.67;;
71753;SDS011;59593;51.716;7.016;2023-05-10T09:02:57;39.30;;;26.77;;
71753;SDS011;59593;51.716;7.016;2023-05-10T09:05:24;35.97;;;26.73;;
71753;SDS011;59593;51.716;7.016;2023-05-10T09:07:49;34.90;;;25.38;;
71753;SDS011;59593;51.716;7.016;2023-05-10T09:10:15;31.45;;;24.35;;
71753;SDS011;59593;51.716;7.016;2023-05-10T09:12:41;32.65;;;23.63;;
71753;SDS011;59593;51.716;7.016;2023-05-10T09:15:09;32.70;;;23.40;;
71753;SDS011;59593;51.716;7.016;2023-05-10T09:17:35;34.30;;;23.55;;
71753;SDS011;59593;51.716;7.016;2023-05-10T09:20:05;31.88;;;24.67;;
71753;SDS011;59593;51.716;7.016;2023-05-10T09:22:32;32.45;;;24.02;;
71753;SDS011;59593;51.716;7.016;2023-05-10T09:27:37;37.05;;;24.65;;
71753;SDS011;59593;51.716;7.016;2023-05-10T09:30:04;38.00;;;24.20;;
71753;SDS011;59593;51.716;7.016;2023-05-10T09:32:41;35.33;;;24.20;;
71753;SDS011;59593;51.716;7.016;2023-05-10T09:35:09;34.15;;;24.35;;
71753;SDS011;59593;51.716;7.016;2023-05-10T09:37:36;35.30;;;23.38;;
71753;SDS011;59593;51.716;7.016;2023-05-10T09:40:06;35.22;;;23.75;;
71753;SDS011;59593;51.716;7.016;2023-05-10T09:42:33;37.88;;;26.80;;
71753;SDS011;59593;51.716;7.016;2023-05-10T09:45:09;39.85;;;28.85;;
71753;SDS011;59593;51.716;7.016;2023-05-10T09:47:35;36.80;;;25.58;;
71753;SDS011;59593;51.716;7.016;2023-05-10T09:50:01;37.35;;;25.35;;
71753;SDS011;59593;51.716;7.016;2023-05-10T09:52:31;33.30;;;23.75;;
71753;SDS011;59593;51.716;7.016;2023-05-10T09:55:18;44.28;;;29.27;;
71753;SDS011;59593;51.716;7.016;2023-05-10T09:57:49;49.13;;;37.13;;
71753;SDS011;59593;51.716;7.016;2023-05-10T10:00:24;36.90;;;25.98;;
71753;SDS011;59593;51.716;7.016;2023-05-10T10:02:55;37.33;;;26.13;;
71753;SDS011;59593;51.716;7.016;2023-05-10T10:05:44;40.25;;;26.52;;
71753;SDS011;59593;51.716;7.016;2023-05-10T10:08:09;38.08;;;27.23;;
71753;SDS011;59593;51.716;7.016;2023-05-10T10:10:35;39.95;;;27.75;;
71753;SDS011;59593;51.716;7.016;2023-05-10T10:13:01;35.78;;;24.50;;
71753;SDS011;59593;51.716;7.016;2023-05-10T10:15:27;36.30;;;24.50;;
71753;SDS011;59593;51.716;7.016;2023-05-10T10:17:53;37.03;;;25.13;;
71753;SDS011;59593;51.716;7.016;2023-05-10T10:20:19;37.53;;;25.25;;
71753;SDS011;59593;51.716;7.016;2023-05-10T10:22:47;37.05;;;24.95;;
71753;SDS011;59593;51.716;7.016;2023-05-10T10:25:14;41.03;;;24.52;;
71753;SDS011;59593;51.716;7.016;2023-05-10T10:27:43;35.42;;;25.08;;
71753;SDS011;59593;51.716;7.016;2023-05-10T10:30:27;33.67;;;24.02;;
71753;SDS011;59593;51.716;7.016;2023-05-10T10:35:50;33.88;;;24.35;;
71753;SDS011;59593;51.716;7.016;2023-05-10T10:38:18;33.30;;;23.40;;
71753;SDS011;59593;51.716;7.016;2023-05-10T10:40:47;33.28;;;22.55;;
71753;SDS011;59593;51.716;7.016;2023-05-10T10:43:23;32.70;;;24.05;;
71753;SDS011;59593;51.716;7.016;2023-05-10T10:48:48;28.52;;;21.30;;
71753;SDS011;59593;51.716;7.016;2023-05-10T10:51:40;26.92;;;20.33;;
71753;SDS011;59593;51.716;7.016;2023-05-10T10:55:14;25.95;;;19.77;;
71753;SDS011;59593;51.716;7.016;2023-05-10T10:57:44;28.23;;;20.42;;
71753;SDS011;59593;51.716;7.016;2023-05-10T11:00:17;28.20;;;20.10;;
71753;SDS011;59593;51.716;7.016;2023-05-10T11:02:46;25.48;;;19.42;;
71753;SDS011;59593;51.716;7.016;2023-05-10T11:07:56;23.25;;;17.27;;
71753;SDS011;59593;51.716;7.016;2023-05-10T11:10:23;23.05;;;17.60;;
71753;SDS011;59593;51.716;7.016;2023-05-10T11:13:04;20.30;;;17.13;;
71753;SDS011;59593;51.716;7.016;2023-05-10T11:15:34;26.55;;;17.88;;
71753;SDS011;59593;51.716;7.016;2023-05-10T11:18:20;24.13;;;17.20;;
71753;SDS011;59593;51.716;7.016;2023-05-10T11:20:52;23.45;;;17.25;;
71753;SDS011;59593;51.716;7.016;2023-05-10T11:23:32;23.52;;;15.85;;
71753;SDS011;59593;51.716;7.016;2023-05-10T11:26:21;23.35;;;16.33;;
71753;SDS011;59593;51.716;7.016;2023-05-10T11:28:50;21.40;;;16.27;;
71753;SDS011;59593;51.716;7.016;2023-05-10T11:31:17;20.83;;;16.70;;
71753;SDS011;59593;51.716;7.016;2023-05-10T11:36:43;23.70;;;17.05;;
71753;SDS011;59593;51.716;7.016;2023-05-10T11:39:02;21.20;;;16.15;;
71753;SDS011;59593;51.716;7.016;2023-05-10T11:41:28;20.90;;;15.00;;
71753;SDS011;59593;51.716;7.016;2023-05-10T11:43:55;19.15;;;14.80;;
71753;SDS011;59593;51.716;7.016;2023-05-10T11:46:22;22.02;;;15.73;;
71753;SDS011;59593;51.716;7.016;2023-05-10T11:48:50;20.02;;;15.10;;
71753;SDS011;59593;51.716;7.016;2023-05-10T11:51:24;20.33;;;14.77;;
71753;SDS011;59593;51.716;7.016;2023-05-10T11:53:51;18.45;;;14.60;;
71753;SDS011;59593;51.716;7.016;2023-05-10T11:56:19;21.75;;;15.32;;
71753;SDS011;59593;51.716;7.016;2023-05-10T11:58:51;19.63;;;15.40;;
71753;SDS011;59593;51.716;7.016;2023-05-10T12:01:21;18.77;;;15.65;;
71753;SDS011;59593;51.716;7.016;2023-05-10T12:03:48;20.65;;;16.33;;
71753;SDS011;59593;51.716;7.016;2023-05-10T12:06:15;22.67;;;17.35;;
71753;SDS011;59593;51.716;7.016;2023-05-10T12:08:43;22.83;;;18.30;;
71753;SDS011;59593;51.716;7.016;2023-05-10T12:11:12;22.48;;;17.05;;
71753;SDS011;59593;51.716;7.016;2023-05-10T12:13:42;21.35;;;16.27;;
71753;SDS011;59593;51.716;7.016;2023-05-10T12:16:19;17.33;;;15.27;;
71753;SDS011;59593;51.716;7.016;2023-05-10T12:18:49;18.75;;;15.98;;
71753;SDS011;59593;51.716;7.016;2023-05-10T12:21:16;17.48;;;15.55;;
71753;SDS011;59593;51.716;7.016;2023-05-10T12:23:41;17.00;;;14.63;;
71753;SDS011;59593;51.716;7.016;2023-05-10T12:26:10;19.02;;;15.80;;
71753;SDS011;59593;51.716;7.016;2023-05-10T12:28:36;18.75;;;15.95;;
71753;SDS011;59593;51.716;7.016;2023-05-10T12:31:03;18.45;;;14.55;;
71753;SDS011;59593;51.716;7.016;2023-05-10T12:33:37;18.02;;;14.18;;
71753;SDS011;59593;51.716;7.016;2023-05-10T12:36:04;18.00;;;14.18;;
71753;SDS011;59593;51.716;7.016;2023-05-10T12:38:37;21.95;;;15.52;;
71753;SDS011;59593;51.716;7.016;2023-05-10T12:41:13;17.20;;;15.15;;
71753;SDS011;59593;51.716;7.016;2023-05-10T12:43:40;19.77;;;14.90;;
71753;SDS011;59593;51.716;7.016;2023-05-10T12:48:31;17.48;;;14.85;;
71753;SDS011;59593;51.716;7.016;2023-05-10T12:50:58;19.67;;;16.60;;
71753;SDS011;59593;51.716;7.016;2023-05-10T12:53:25;20.88;;;16.67;;
71753;SDS011;59593;51.716;7.016;2023-05-10T12:55:50;20.83;;;16.38;;
71753;SDS011;59593;51.716;7.016;2023-05-10T12:58:16;18.98;;;15.98;;
71753;SDS011;59593;51.716;7.016;2023-05-10T13:00:45;22.27;;;16.52;;
71753;SDS011;59593;51.716;7.016;2023-05-10T13:03:11;19.15;;;15.98;;
71753;SDS011;59593;51.716;7.016;2023-05-10T13:05:36;18.65;;;15.50;;
71753;SDS011;59593;51.716;7.016;2023-05-10T13:08:02;18.33;;;14.35;;
71753;SDS011;59593;51.716;7.016;2023-05-10T13:10:31;17.45;;;13.52;;
71753;SDS011;59593;51.716;7.016;2023-05-10T13:12:57;18.40;;;13.68;;
71753;SDS011;59593;51.716;7.016;2023-05-10T13:15:23;18.67;;;14.68;;
71753;SDS011;59593;51.716;7.016;2023-05-10T13:17:49;17.58;;;14.13;;
71753;SDS011;59593;51.716;7.016;2023-05-10T13:20:15;17.02;;;15.10;;
71753;SDS011;59593;51.716;7.016;2023-05-10T13:22:41;17.02;;;13.52;;
71753;SDS011;59593;51.716;7.016;2023-05-10T13:25:07;18.90;;;14.50;;
71753;SDS011;59593;51.716;7.016;2023-05-10T13:27:33;19.05;;;14.30;;
71753;SDS011;59593;51.716;7.016;2023-05-10T13:29:59;14.90;;;12.80;;
71753;SDS011;59593;51.716;7.016;2023-05-10T13:32:25;15.07;;;12.65;;
71753;SDS011;59593;51.716;7.016;2023-05-10T13:34:51;17.58;;;12.93;;
71753;SDS011;59593;51.716;7.016;2023-05-10T13:37:17;16.13;;;12.10;;
71753;SDS011;59593;51.716;7.016;2023-05-10T13:39:42;15.45;;;12.48;;
71753;SDS011;59593;51.716;7.016;2023-05-10T13:42:08;16.20;;;12.05;;
71753;SDS011;59593;51.716;7.016;2023-05-10T13:44:34;18.05;;;15.05;;
71753;SDS011;59593;51.716;7.016;2023-05-10T13:47:00;17.75;;;14.20;;
71753;SDS011;59593;51.716;7.016;2023-05-10T13:49:26;19.98;;;14.75;;
71753;SDS011;59593;51.716;7.016;2023-05-10T13:51:53;18.80;;;14.63;;
71753;SDS011;59593;51.716;7.016;2023-05-10T13:54:18;17.33;;;14.10;;
71753;SDS011;59593;51.716;7.016;2023-05-10T13:56:44;15.27;;;13.25;;
71753;SDS011;59593;51.716;7.016;2023-05-10T13:59:12;16.30;;;12.90;;
71753;SDS011;59593;51.716;7.016;2023-05-10T14:01:39;15.55;;;12.93;;
71753;SDS011;59593;51.716;7.016;2023-05-10T14:04:08;17.08;;;13.30;;
71753;SDS011;59593;51.716;7.016;2023-05-10T14:06:36;17.30;;;14.25;;
71753;SDS011;59593;51.716;7.016;2023-05-10T14:09:02;15.38;;;13.57;;
71753;SDS011;59593;51.716;7.016;2023-05-10T14:11:28;16.83;;;13.00;;
71753;SDS011;59593;51.716;7.016;2023-05-10T14:13:54;15.98;;;12.82;;
71753;SDS011;59593;51.716;7.016;2023-05-10T14:16:19;11.50;;;8.02;;
71753;SDS011;59593;51.716;7.016;2023-05-10T14:18:45;10.00;;;7.03;;
71753;SDS011;59593;51.716;7.016;2023-05-10T14:21:11;9.95;;;8.07;;
71753;SDS011;59593;51.716;7.016;2023-05-10T14:23:37;8.75;;;7.15;;
71753;SDS011;59593;51.716;7.016;2023-05-10T14:26:03;11.60;;;8.15;;
71753;SDS011;59593;51.716;7.016;2023-05-10T14:28:29;10.52;;;8.93;;
71753;SDS011;59593;51.716;7.016;2023-05-10T14:30:54;9.40;;;8.35;;
71753;SDS011;59593;51.716;7.016;2023-05-10T14:33:20;10.60;;;8.88;;
71753;SDS011;59593;51.716;7.016;2023-05-10T14:35:46;9.45;;;8.15;;
71753;SDS011;59593;51.716;7.016;2023-05-10T14:38:12;11.23;;;8.82;;
71753;SDS011;59593;51.716;7.016;2023-05-10T14:40:38;9.82;;;8.70;;
71753;SDS011;59593;51.716;7.016;2023-05-10T14:43:04;10.07;;;8.75;;
71753;SDS011;59593;51.716;7.016;2023-05-10T14:45:29;11.75;;;8.60;;
71753;SDS011;59593;51.716;7.016;2023-05-10T14:47:55;11.13;;;9.05;;
71753;SDS011;59593;51.716;7.016;2023-05-10T14:50:22;10.65;;;9.27;;
71753;SDS011;59593;51.716;7.016;2023-05-10T14:52:47;10.25;;;8.68;;
71753;SDS011;59593;51.716;7.016;2023-05-10T14:55:13;9.98;;;8.23;;
71753;SDS011;59593;51.716;7.016;2023-05-10T14:57:39;8.95;;;7.60;;
71753;SDS011;59593;51.716;7.016;2023-05-10T15:00:05;11.95;;;8.50;;